Thailine 5 — 9WFF5 — position and weather

sailwx.info

Track history (hours):
 
Tides and Currents Weather Stations Pressure Air Temp Water Temp Dewpoint Dewpoint Depression Visibility Wind Speed Wind Dir Waves Ship Positions

Thailine 5

Last reported at 2015-Mar-01 07:04 UTC. Time now 2015-Mar-01 20:56 UTC.
Position N 34°48' E 139°44'.

Length 98 m; draft 6.3 m.

Type: Cargo ship. MMSI: 533399000.

Date/timePositionNaut miles runAvg speedWind from/ knotsBaromVisibWave heightAir tempDewpointWater temp
2015-Mar-01 07:04N 34°48' E 139°44'  
2015-Feb-26 21:33N 34°49' E 139°43'6 1.5
2015-Feb-26 17:18N 34°47' E 139°36'2 0.9
2015-Feb-26 15:33N 34°49' E 139°37'2 1.6
2015-Feb-26 14:14N 34°51' E 139°38'2 2.0
2015-Feb-26 13:24N 34°52' E 139°38'1 1.5
2015-Feb-26 12:32N 34°53' E 139°39'  
2015-Feb-20 10:29N 35°00' E 139°31'9 9.5
2015-Feb-20 09:33N 35°05' E 139°40'10 9.8
2015-Feb-20 08:33N 35°13' E 139°46'9 9.4
2015-Feb-20 07:33N 35°22' E 139°42'6 6.3
2015-Feb-20 06:33N 35°23' E 139°50'3 2.6
2015-Feb-20 05:21N 35°22' E 139°53'0 0.1
2015-Feb-20 04:33N 35°22' E 139°53'0 0.0
2015-Feb-20 03:33N 35°22' E 139°53'0 0.0
2015-Feb-20 02:03N 35°22' E 139°53'0 0.0
2015-Feb-20 01:27N 35°22' E 139°53'0 0.0
2015-Feb-20 00:15N 35°22' E 139°53'0 0.0
2015-Feb-19 23:21N 35°22' E 139°53'0 0.0
2015-Feb-19 22:21N 35°22' E 139°53'0 0.0
2015-Feb-19 21:27N 35°22' E 139°53'0 0.0
2015-Feb-19 20:33N 35°22' E 139°53'0 0.0
2015-Feb-19 19:33N 35°22' E 139°53'0 0.0
2015-Feb-19 18:21N 35°22' E 139°53'0 0.0
2015-Feb-19 17:33N 35°22' E 139°53'0 0.0
2015-Feb-19 16:33N 35°22' E 139°53'0 0.0
2015-Feb-19 15:33N 35°22' E 139°53'0 0.0
2015-Feb-19 14:33N 35°22' E 139°53'0 0.0
2015-Feb-19 13:27N 35°22' E 139°53'0 0.0
2015-Feb-19 12:33N 35°22' E 139°53'0 0.0
2015-Feb-19 11:33N 35°22' E 139°53'0 0.0
2015-Feb-19 10:33N 35°22' E 139°53'0 0.0
2015-Feb-19 09:33N 35°22' E 139°53'0 0.0
2015-Feb-19 08:33N 35°22' E 139°53'0 0.0
2015-Feb-19 07:27N 35°22' E 139°53'  
Track history (hours):
 
Tides and Currents Weather Stations Pressure Air Temp Water Temp Dewpoint Dewpoint Depression Visibility Wind Speed Wind Dir Waves Ship Positions

Thailine 5

Last reported at 2015-Mar-01 07:04 UTC. Time now 2015-Mar-01 20:56 UTC.
Position N 34°48' E 139°44'.

Length 98 m; draft 6.3 m.

Type: Cargo ship. MMSI: 533399000.

Date/timePositionNaut miles runAvg speedWind from/ knotsBaromVisibWave heightAir tempDewpointWater temp
2015-Mar-01 07:04N 34°48' E 139°44'  
2015-Feb-26 21:33N 34°49' E 139°43'6 1.5
2015-Feb-26 17:18N 34°47' E 139°36'2 0.9
2015-Feb-26 15:33N 34°49' E 139°37'2 1.6
2015-Feb-26 14:14N 34°51' E 139°38'2 2.0
2015-Feb-26 13:24N 34°52' E 139°38'1 1.5
2015-Feb-26 12:32N 34°53' E 139°39'  
2015-Feb-20 10:29N 35°00' E 139°31'9 9.5
2015-Feb-20 09:33N 35°05' E 139°40'10 9.8
2015-Feb-20 08:33N 35°13' E 139°46'9 9.4
2015-Feb-20 07:33N 35°22' E 139°42'6 6.3
2015-Feb-20 06:33N 35°23' E 139°50'3 2.6
2015-Feb-20 05:21N 35°22' E 139°53'0 0.1
2015-Feb-20 04:33N 35°22' E 139°53'0 0.0
2015-Feb-20 03:33N 35°22' E 139°53'0 0.0
2015-Feb-20 02:03N 35°22' E 139°53'0 0.0
2015-Feb-20 01:27N 35°22' E 139°53'0 0.0
2015-Feb-20 00:15N 35°22' E 139°53'0 0.0
2015-Feb-19 23:21N 35°22' E 139°53'0 0.0
2015-Feb-19 22:21N 35°22' E 139°53'0 0.0
2015-Feb-19 21:27N 35°22' E 139°53'0 0.0
2015-Feb-19 20:33N 35°22' E 139°53'0 0.0
2015-Feb-19 19:33N 35°22' E 139°53'0 0.0
2015-Feb-19 18:21N 35°22' E 139°53'0 0.0
2015-Feb-19 17:33N 35°22' E 139°53'0 0.0
2015-Feb-19 16:33N 35°22' E 139°53'0 0.0
2015-Feb-19 15:33N 35°22' E 139°53'0 0.0
2015-Feb-19 14:33N 35°22' E 139°53'0 0.0
2015-Feb-19 13:27N 35°22' E 139°53'0 0.0
2015-Feb-19 12:33N 35°22' E 139°53'0 0.0
2015-Feb-19 11:33N 35°22' E 139°53'0 0.0
2015-Feb-19 10:33N 35°22' E 139°53'0 0.0
2015-Feb-19 09:33N 35°22' E 139°53'0 0.0
2015-Feb-19 08:33N 35°22' E 139°53'0 0.0
2015-Feb-19 07:27N 35°22' E 139°53'  

Dump ship's entire track history